createdAt,value
2022-10-12T00:01:20.517Z,5.83
2022-10-12T00:03:44.487Z,5.60
2022-10-12T00:06:10.882Z,4.87
2022-10-12T00:08:35.879Z,4.93
2022-10-12T00:10:59.406Z,5.10
2022-10-12T00:13:24.548Z,4.90
2022-10-12T00:15:48.058Z,5.17
2022-10-12T00:18:11.795Z,4.97
2022-10-12T00:20:35.615Z,4.80
2022-10-12T00:22:59.199Z,4.53
2022-10-12T00:25:22.724Z,5.07
2022-10-12T00:27:46.455Z,4.80
2022-10-12T00:30:13.820Z,5.17
2022-10-12T00:32:37.474Z,4.77
2022-10-12T00:35:00.975Z,5.10
2022-10-12T00:37:24.603Z,5.17
2022-10-12T00:39:49.559Z,5.83
2022-10-12T00:42:13.530Z,5.30
2022-10-12T00:44:41.593Z,4.70
2022-10-12T00:47:21.112Z,4.93
2022-10-12T00:49:47.788Z,4.73
2022-10-12T00:52:14.483Z,4.97
2022-10-12T00:54:43.585Z,5.33
2022-10-12T00:57:08.740Z,5.00
2022-10-12T00:59:38.217Z,5.37
2022-10-12T01:02:02.272Z,6.33
2022-10-12T01:04:27.812Z,4.60
2022-10-12T01:06:51.966Z,4.67
2022-10-12T01:09:16.146Z,4.30
2022-10-12T01:11:39.703Z,4.37
2022-10-12T01:14:03.811Z,5.00
2022-10-12T01:16:36.438Z,5.13
2022-10-12T01:19:10.062Z,5.27
2022-10-12T01:21:39.226Z,4.93
2022-10-12T01:24:25.940Z,5.57
2022-10-12T01:27:36.396Z,5.67
2022-10-12T01:30:13.351Z,5.30
2022-10-12T01:32:53.950Z,5.40
2022-10-12T01:35:23.982Z,5.10
2022-10-12T01:37:54.652Z,5.77
2022-10-12T01:40:30.719Z,5.40
2022-10-12T01:42:57.059Z,6.40
2022-10-12T01:45:22.058Z,5.40
2022-10-12T01:47:49.479Z,5.30
2022-10-12T01:50:15.650Z,5.63
2022-10-12T01:52:44.597Z,5.60
2022-10-12T01:55:19.141Z,6.20
2022-10-12T01:57:56.256Z,5.00
2022-10-12T02:00:21.892Z,5.00
2022-10-12T02:02:57.059Z,5.33
2022-10-12T02:05:30.483Z,4.57
2022-10-12T02:08:00.451Z,5.30
2022-10-12T02:10:29.458Z,5.00
2022-10-12T02:12:56.226Z,5.47
2022-10-12T02:15:24.058Z,5.10
2022-10-12T02:17:50.998Z,5.20
2022-10-12T02:20:18.722Z,4.97
2022-10-12T02:22:47.043Z,4.63
2022-10-12T02:25:13.980Z,4.83
2022-10-12T02:27:43.430Z,4.93
2022-10-12T02:30:09.340Z,4.70
2022-10-12T02:32:40.114Z,5.47
2022-10-12T02:35:09.067Z,5.10
2022-10-12T02:37:39.963Z,4.77
2022-10-12T02:40:11.727Z,4.57
2022-10-12T02:43:08.880Z,4.70
2022-10-12T02:45:30.898Z,4.73
2022-10-12T02:47:57.447Z,4.80
2022-10-12T02:50:22.943Z,5.23
2022-10-12T02:52:48.247Z,5.20
2022-10-12T02:55:13.166Z,5.20
2022-10-12T02:57:36.888Z,4.77
2022-10-12T03:00:00.746Z,5.30
2022-10-12T03:02:24.323Z,5.10
2022-10-12T03:04:49.304Z,5.40
2022-10-12T03:07:12.807Z,5.40
2022-10-12T03:09:36.487Z,5.13
2022-10-12T03:12:00.079Z,5.47
2022-10-12T03:14:23.911Z,4.80
2022-10-12T03:16:48.200Z,5.37
2022-10-12T03:19:11.927Z,5.30
2022-10-12T03:21:36.980Z,5.77
2022-10-12T03:24:00.638Z,5.50
2022-10-12T03:26:24.188Z,5.37
2022-10-12T03:28:47.903Z,5.17
2022-10-12T03:31:11.507Z,5.77
2022-10-12T03:33:35.124Z,5.17
2022-10-12T03:35:59.790Z,5.50
2022-10-12T03:38:24.789Z,5.53
2022-10-12T03:40:48.835Z,5.90
2022-10-12T03:43:13.319Z,7.07
2022-10-12T03:45:36.935Z,6.20
2022-10-12T03:48:04.637Z,7.07
2022-10-12T03:50:29.003Z,8.67
2022-10-12T03:52:52.597Z,7.83
2022-10-12T03:55:17.834Z,7.23
2022-10-12T03:57:41.431Z,7.97
2022-10-12T04:00:06.802Z,7.93
2022-10-12T04:02:34.879Z,7.23
2022-10-12T04:04:58.432Z,7.10
2022-10-12T04:07:21.997Z,6.60
2022-10-12T04:09:45.518Z,6.90
2022-10-12T04:12:10.507Z,6.97
2022-10-12T04:14:34.051Z,8.27
2022-10-12T04:16:57.676Z,8.23
2022-10-12T04:19:21.637Z,7.70
2022-10-12T04:21:45.219Z,7.77
2022-10-12T04:24:09.378Z,10.13
2022-10-12T04:26:32.982Z,10.43
2022-10-12T04:28:58.062Z,12.97
2022-10-12T04:31:21.782Z,12.47
2022-10-12T04:33:45.308Z,11.33
2022-10-12T04:36:09.470Z,12.07
2022-10-12T04:38:32.990Z,12.80
2022-10-12T04:40:57.755Z,12.00
2022-10-12T04:43:21.410Z,14.80
2022-10-12T04:45:46.524Z,14.80
2022-10-12T04:48:10.086Z,13.07
2022-10-12T04:50:33.675Z,15.77
2022-10-12T04:52:57.246Z,15.03
2022-10-12T04:55:20.846Z,15.67
2022-10-12T04:57:44.383Z,13.73
2022-10-12T05:00:09.655Z,15.47
2022-10-12T05:02:35.000Z,14.87
2022-10-12T05:04:58.635Z,12.87
2022-10-12T05:07:22.179Z,16.27
2022-10-12T05:09:45.759Z,18.67
2022-10-12T05:12:09.464Z,16.17
2022-10-12T05:14:35.823Z,20.97
2022-10-12T05:16:59.691Z,23.83
2022-10-12T05:19:24.665Z,23.63
2022-10-12T05:21:48.219Z,23.10
2022-10-12T05:24:12.820Z,19.53
2022-10-12T05:26:36.334Z,24.70
2022-10-12T05:29:00.058Z,26.93
2022-10-12T05:31:23.690Z,25.17
2022-10-12T05:33:47.260Z,28.27
2022-10-12T05:36:12.442Z,23.93
2022-10-12T05:38:36.119Z,22.97
2022-10-12T05:41:00.864Z,23.43
2022-10-12T05:43:25.180Z,24.90
2022-10-12T05:45:49.116Z,23.30
2022-10-12T05:48:12.723Z,23.80
2022-10-12T05:50:36.310Z,24.90
2022-10-12T05:53:01.316Z,24.60
2022-10-12T05:55:24.876Z,24.37
2022-10-12T05:57:52.013Z,24.13
2022-10-12T06:00:16.149Z,21.23
2022-10-12T06:02:40.102Z,23.67
2022-10-12T06:05:03.846Z,22.77
2022-10-12T06:07:27.460Z,22.20
2022-10-12T06:09:52.395Z,21.17
2022-10-12T06:12:16.410Z,21.47
2022-10-12T06:14:39.975Z,22.03
2022-10-12T06:17:03.572Z,22.57
2022-10-12T06:19:27.219Z,22.77
2022-10-12T06:21:50.880Z,22.50
2022-10-12T06:24:14.407Z,22.57
2022-10-12T06:26:39.392Z,25.47
2022-10-12T06:29:02.989Z,27.57
2022-10-12T06:31:27.046Z,29.57
2022-10-12T06:33:51.091Z,20.87
2022-10-12T06:36:14.736Z,21.03
2022-10-12T06:38:38.264Z,20.20
2022-10-12T06:41:01.824Z,21.53
2022-10-12T06:43:26.837Z,21.83
2022-10-12T06:45:50.507Z,22.10
2022-10-12T06:48:18.336Z,22.63
2022-10-12T06:50:42.632Z,22.63
2022-10-12T06:53:06.224Z,24.53
2022-10-12T06:55:29.931Z,23.33
2022-10-12T06:57:53.459Z,22.37
2022-10-12T07:00:19.281Z,21.80
2022-10-12T07:02:42.799Z,21.73
2022-10-12T07:05:07.947Z,21.33
2022-10-12T07:07:32.757Z,22.83
2022-10-12T07:09:56.431Z,23.63
2022-10-12T07:12:20.246Z,22.07
2022-10-12T07:14:43.879Z,22.40
2022-10-12T07:17:08.780Z,23.97
2022-10-12T07:19:32.358Z,23.07
2022-10-12T07:21:55.949Z,23.20
2022-10-12T07:24:19.553Z,22.43
2022-10-12T07:26:43.156Z,21.80
2022-10-12T07:29:06.787Z,23.70
2022-10-12T07:31:30.504Z,23.40
2022-10-12T07:33:56.331Z,23.00
2022-10-12T07:36:21.874Z,21.73
2022-10-12T07:38:45.870Z,22.87
2022-10-12T07:41:10.030Z,21.63
2022-10-12T07:43:33.795Z,20.40
2022-10-12T07:45:57.539Z,21.67
2022-10-12T07:48:21.356Z,24.40
2022-10-12T07:50:46.258Z,25.23
2022-10-12T07:53:09.899Z,23.80
2022-10-12T07:55:33.451Z,23.05
2022-10-12T07:57:57.044Z,22.38
2022-10-12T08:00:22.094Z,20.73
2022-10-12T08:02:45.723Z,20.50
2022-10-12T08:05:10.441Z,20.40
2022-10-12T08:07:35.474Z,18.55
2022-10-12T08:09:59.007Z,18.50
2022-10-12T08:12:22.723Z,17.67
2022-10-12T08:14:46.239Z,16.10
2022-10-12T08:17:09.895Z,17.27
2022-10-12T08:19:35.420Z,17.67
2022-10-12T08:21:59.151Z,16.85
2022-10-12T08:24:24.113Z,15.98
2022-10-12T08:26:48.920Z,16.55
2022-10-12T08:29:12.777Z,18.55
2022-10-12T08:31:36.843Z,18.08
2022-10-12T08:34:00.860Z,18.25
2022-10-12T08:36:24.515Z,17.38
2022-10-12T08:38:53.950Z,17.30
2022-10-12T08:41:40.875Z,16.25
2022-10-12T08:44:27.623Z,15.70
2022-10-12T08:46:57.000Z,17.52
2022-10-12T08:49:23.880Z,15.98
2022-10-12T08:51:51.448Z,17.25
2022-10-12T08:54:17.158Z,16.88
2022-10-12T08:56:42.692Z,17.27
2022-10-12T08:59:06.710Z,16.17
2022-10-12T09:01:37.402Z,16.40
2022-10-12T09:04:18.751Z,15.73
2022-10-12T09:06:48.985Z,14.65
2022-10-12T09:09:33.635Z,11.63
2022-10-12T09:12:16.696Z,12.98
2022-10-12T09:14:42.666Z,11.00
2022-10-12T09:17:28.803Z,11.07
2022-10-12T09:20:02.688Z,9.93
2022-10-12T09:22:26.471Z,11.57
2022-10-12T09:24:52.985Z,11.32
2022-10-12T09:27:20.964Z,11.13
2022-10-12T09:29:48.064Z,9.80
2022-10-12T09:32:42.136Z,11.02
2022-10-12T09:35:08.160Z,11.00
2022-10-12T09:37:34.712Z,8.23
2022-10-12T09:39:59.374Z,8.23
2022-10-12T09:42:24.361Z,7.38
2022-10-12T09:44:50.463Z,6.47
2022-10-12T09:47:29.884Z,6.50
2022-10-12T09:49:58.458Z,6.00
2022-10-12T09:52:26.563Z,5.93
2022-10-12T09:54:55.508Z,5.50
2022-10-12T09:57:25.221Z,6.43
2022-10-12T09:59:49.267Z,3.83
2022-10-12T10:02:17.533Z,4.10
2022-10-12T10:04:42.794Z,4.50
2022-10-12T10:07:28.298Z,4.07
2022-10-12T10:10:18.145Z,3.63
2022-10-12T10:12:50.731Z,4.43
2022-10-12T10:15:23.898Z,3.40
2022-10-12T10:17:53.839Z,3.60
2022-10-12T10:20:33.840Z,4.03
2022-10-12T10:22:58.425Z,2.97
2022-10-12T10:25:25.028Z,3.15
2022-10-12T10:28:24.982Z,3.10
2022-10-12T10:31:00.635Z,3.80
2022-10-12T10:33:24.242Z,3.33
2022-10-12T10:36:02.258Z,3.08
2022-10-12T10:38:26.215Z,2.92
2022-10-12T10:40:53.181Z,3.00
2022-10-12T10:43:29.464Z,3.15
2022-10-12T10:45:57.369Z,2.65
2022-10-12T10:48:24.056Z,2.60
2022-10-12T10:50:56.540Z,2.60
2022-10-12T10:53:23.203Z,2.45
2022-10-12T10:55:51.038Z,2.20
2022-10-12T10:58:27.666Z,2.08
2022-10-12T11:00:53.097Z,3.00
2022-10-12T11:03:25.165Z,2.88
2022-10-12T11:05:56.311Z,2.60
2022-10-12T11:08:25.154Z,2.08
2022-10-12T11:10:54.917Z,2.22
2022-10-12T11:13:22.499Z,2.03
2022-10-12T11:15:50.719Z,2.30
2022-10-12T11:18:21.774Z,2.00
2022-10-12T11:20:54.027Z,2.40
2022-10-12T11:23:30.079Z,2.53
2022-10-12T11:26:13.542Z,2.50
2022-10-12T11:28:39.202Z,2.00
2022-10-12T11:31:03.716Z,2.15
2022-10-12T11:33:35.196Z,2.05
2022-10-12T11:36:00.295Z,1.98
2022-10-12T11:38:32.187Z,2.10
2022-10-12T11:41:19.015Z,1.92
2022-10-12T11:43:51.719Z,2.00
2022-10-12T11:46:20.289Z,1.58
2022-10-12T11:48:51.969Z,1.60
2022-10-12T11:51:15.558Z,1.67
2022-10-12T11:53:54.421Z,1.88
2022-10-12T11:56:25.556Z,1.55
2022-10-12T11:59:00.997Z,1.70
2022-10-12T12:01:45.114Z,1.88
2022-10-12T12:04:42.825Z,1.60
2022-10-12T12:07:41.368Z,1.58
2022-10-12T12:11:04.277Z,1.95
2022-10-12T12:13:28.581Z,1.70
2022-10-12T12:16:23.917Z,2.03
2022-10-12T12:19:41.845Z,1.90
2022-10-12T12:22:50.451Z,1.85
2022-10-12T12:25:21.535Z,2.15
2022-10-12T12:27:49.805Z,1.67
2022-10-12T12:30:42.048Z,1.65
2022-10-12T12:33:27.070Z,1.90
2022-10-12T12:35:56.059Z,1.83
2022-10-12T12:38:27.866Z,2.28
2022-10-12T12:41:11.545Z,1.88
2022-10-12T12:43:59.170Z,1.85
2022-10-12T12:46:23.574Z,1.90
2022-10-12T12:49:04.865Z,2.25
2022-10-12T12:51:44.475Z,1.88
2022-10-12T12:54:20.680Z,2.10
2022-10-12T12:57:16.384Z,2.03
2022-10-12T13:00:15.134Z,1.98
2022-10-12T13:03:22.703Z,2.05
2022-10-12T13:06:48.412Z,2.20
2022-10-12T13:09:53.140Z,1.73
2022-10-12T13:12:47.992Z,1.75
2022-10-12T13:15:32.043Z,1.80
2022-10-12T13:18:47.745Z,1.70
2022-10-12T13:21:20.576Z,2.88
2022-10-12T13:23:49.333Z,2.00
2022-10-12T13:26:20.774Z,1.85
2022-10-12T13:28:44.772Z,1.95
2022-10-12T13:31:13.757Z,2.05
2022-10-12T13:33:45.729Z,1.88
2022-10-12T13:36:18.134Z,1.90
2022-10-12T13:38:41.767Z,1.80
2022-10-12T13:41:10.019Z,1.60
2022-10-12T13:43:44.887Z,1.60
2022-10-12T13:46:09.242Z,1.58
2022-10-12T13:48:58.603Z,1.85
2022-10-12T13:51:25.566Z,1.98
2022-10-12T13:53:49.196Z,1.77
2022-10-12T13:56:18.331Z,1.80
2022-10-12T13:58:43.463Z,2.60
2022-10-12T14:01:07.349Z,1.70
2022-10-12T14:03:39.679Z,1.52
2022-10-12T14:06:04.497Z,1.80
2022-10-12T14:08:29.387Z,1.90
2022-10-12T14:10:53.595Z,1.35
2022-10-12T14:13:26.688Z,1.98
2022-10-12T14:15:51.852Z,1.80
2022-10-12T14:18:39.787Z,1.73
2022-10-12T14:21:14.260Z,1.90
2022-10-12T14:23:43.300Z,1.85
2022-10-12T14:26:15.735Z,2.72
2022-10-12T14:28:39.450Z,3.33
2022-10-12T14:31:04.842Z,4.55
2022-10-12T14:33:29.347Z,2.95
2022-10-12T14:35:54.268Z,2.90
2022-10-12T14:38:39.758Z,2.28
2022-10-12T14:41:35.477Z,1.75
2022-10-12T14:44:11.891Z,1.88
2022-10-12T14:46:37.801Z,3.22
2022-10-12T14:49:01.645Z,5.55
2022-10-12T14:51:25.560Z,3.95
2022-10-12T14:54:00.044Z,4.35
2022-10-12T14:56:23.695Z,4.50
2022-10-12T14:58:47.253Z,3.70
2022-10-12T15:01:10.962Z,3.40
2022-10-12T15:03:36.105Z,2.47
2022-10-12T15:05:59.995Z,4.05
2022-10-12T15:08:23.517Z,2.88
2022-10-12T15:10:51.209Z,2.80
2022-10-12T15:13:15.292Z,2.75
2022-10-12T15:15:43.847Z,2.70
2022-10-12T15:18:08.377Z,2.80
2022-10-12T15:20:34.107Z,2.88
2022-10-12T15:22:57.687Z,3.15
2022-10-12T15:25:26.022Z,2.80
2022-10-12T15:27:49.535Z,2.22
2022-10-12T15:30:14.817Z,2.63
2022-10-12T15:32:38.522Z,2.70
2022-10-12T15:35:02.469Z,4.70
2022-10-12T15:37:30.399Z,5.10
2022-10-12T15:39:54.012Z,8.25
2022-10-12T15:42:17.494Z,9.02
2022-10-12T15:44:42.237Z,9.32
2022-10-12T15:47:05.773Z,13.30
2022-10-12T15:49:29.392Z,13.43
2022-10-12T15:51:55.144Z,19.17
2022-10-12T15:54:20.488Z,9.48
2022-10-12T15:56:44.075Z,12.80
2022-10-12T15:59:07.955Z,11.98
2022-10-12T16:01:31.925Z,10.60
2022-10-12T16:03:56.209Z,10.70
2022-10-12T16:06:19.986Z,10.18
2022-10-12T16:08:43.795Z,9.43
2022-10-12T16:11:12.799Z,8.93
2022-10-12T16:13:42.915Z,8.27
2022-10-12T16:16:09.505Z,7.68
2022-10-12T16:18:33.274Z,7.40
2022-10-12T16:20:56.928Z,7.20
2022-10-12T16:23:23.578Z,6.72
2022-10-12T16:25:47.384Z,6.63
2022-10-12T16:28:13.155Z,6.22
2022-10-12T16:30:36.855Z,6.53
2022-10-12T16:33:00.515Z,5.97
2022-10-12T16:35:24.347Z,4.45
2022-10-12T16:37:48.078Z,5.35
2022-10-12T16:40:13.443Z,4.63
2022-10-12T16:42:37.089Z,4.20
2022-10-12T16:45:02.425Z,4.40
2022-10-12T16:47:26.127Z,3.85
2022-10-12T16:49:52.071Z,4.60
2022-10-12T16:52:16.458Z,4.85
2022-10-12T16:54:40.740Z,4.43
2022-10-12T16:57:04.554Z,4.78
2022-10-12T16:59:28.708Z,4.03
2022-10-12T17:01:53.878Z,4.53
2022-10-12T17:04:17.447Z,4.50
2022-10-12T17:06:41.989Z,5.00
2022-10-12T17:09:06.602Z,4.82
2022-10-12T17:11:30.361Z,5.90
2022-10-12T17:13:55.858Z,7.90
2022-10-12T17:16:37.203Z,7.30
2022-10-12T17:19:02.211Z,8.43
2022-10-12T17:21:26.127Z,7.93
2022-10-12T17:23:49.719Z,8.65
2022-10-12T17:26:13.468Z,11.65
2022-10-12T17:28:38.607Z,13.63
2022-10-12T17:31:10.714Z,13.38
2022-10-12T17:33:35.540Z,14.82
2022-10-12T17:36:00.895Z,13.38
2022-10-12T17:38:24.671Z,13.80
2022-10-12T17:40:51.157Z,14.93
2022-10-12T17:43:14.731Z,14.32
2022-10-12T17:45:41.336Z,15.15
2022-10-12T17:48:05.256Z,15.88
2022-10-12T17:50:28.823Z,16.85
2022-10-12T17:52:53.793Z,17.98
2022-10-12T17:55:36.519Z,18.25
2022-10-12T17:58:01.912Z,18.45
2022-10-12T18:00:25.560Z,19.63
2022-10-12T18:02:49.363Z,22.10
2022-10-12T18:05:12.939Z,21.05
2022-10-12T18:07:37.502Z,20.95
2022-10-12T18:10:02.422Z,20.63
2022-10-12T18:12:26.106Z,21.58
2022-10-12T18:14:49.631Z,20.42
2022-10-12T18:17:13.288Z,19.48
2022-10-12T18:19:36.945Z,19.38
2022-10-12T18:22:00.562Z,18.80
2022-10-12T18:24:24.086Z,18.77
2022-10-12T18:26:49.280Z,18.55
2022-10-12T18:29:16.763Z,17.77
2022-10-12T18:31:40.555Z,17.50
2022-10-12T18:34:04.579Z,16.90
2022-10-12T18:36:28.758Z,17.23
2022-10-12T18:38:52.823Z,17.30
2022-10-12T18:41:22.110Z,17.60
2022-10-12T18:43:47.182Z,17.65
2022-10-12T18:46:13.072Z,18.75
2022-10-12T18:48:36.752Z,20.08
2022-10-12T18:51:06.141Z,19.35
2022-10-12T18:53:29.660Z,18.70
2022-10-12T18:55:53.214Z,20.55
2022-10-12T18:58:16.814Z,18.10
2022-10-12T19:00:42.896Z,18.38
2022-10-12T19:03:06.556Z,18.92
2022-10-12T19:05:30.723Z,17.80
2022-10-12T19:07:54.367Z,23.45
2022-10-12T19:10:18.137Z,26.42
2022-10-12T19:12:45.622Z,22.73
2022-10-12T19:15:10.693Z,25.33
2022-10-12T19:17:35.729Z,29.23
2022-10-12T19:19:59.691Z,30.30
2022-10-12T19:22:23.416Z,27.02
2022-10-12T19:24:48.179Z,28.67
2022-10-12T19:27:11.796Z,28.13
2022-10-12T19:29:35.402Z,27.50
2022-10-12T19:31:59.601Z,28.00
2022-10-12T19:34:24.692Z,29.50
2022-10-12T19:36:49.276Z,29.60
2022-10-12T19:39:16.755Z,30.35
2022-10-12T19:41:40.561Z,28.20
2022-10-12T19:44:04.181Z,27.92
2022-10-12T19:46:28.292Z,28.30
2022-10-12T19:48:54.057Z,28.33
2022-10-12T19:51:21.255Z,27.58
2022-10-12T19:53:45.139Z,29.15
2022-10-12T19:56:11.370Z,27.10
2022-10-12T19:58:35.255Z,26.35
2022-10-12T20:01:02.514Z,25.75
2022-10-12T20:03:26.191Z,25.75
2022-10-12T20:05:49.738Z,25.63
2022-10-12T20:08:14.864Z,24.57
2022-10-12T20:10:38.860Z,24.30
2022-10-12T20:13:02.414Z,24.33
2022-10-12T20:15:25.976Z,25.60
2022-10-12T20:17:49.511Z,24.50
2022-10-12T20:20:13.589Z,25.70
2022-10-12T20:22:37.233Z,28.03
2022-10-12T20:25:06.915Z,25.37
2022-10-12T20:27:33.804Z,25.08
2022-10-12T20:29:57.320Z,24.80
2022-10-12T20:32:21.119Z,23.97
2022-10-12T20:34:44.786Z,24.37
2022-10-12T20:37:08.391Z,25.10
2022-10-12T20:39:33.648Z,25.23
2022-10-12T20:41:58.616Z,25.03
2022-10-12T20:44:22.815Z,23.87
2022-10-12T20:46:51.620Z,23.97
2022-10-12T20:49:15.156Z,24.43
2022-10-12T20:51:42.835Z,25.47
2022-10-12T20:54:08.905Z,26.33
2022-10-12T20:56:36.003Z,26.37
2022-10-12T20:59:02.009Z,25.10
2022-10-12T21:01:27.063Z,25.43
2022-10-12T21:03:50.611Z,24.50
2022-10-12T21:06:17.328Z,24.43
2022-10-12T21:08:41.787Z,25.63
2022-10-12T21:11:06.641Z,24.83
2022-10-12T21:13:31.794Z,27.23
2022-10-12T21:15:56.839Z,26.83
2022-10-12T21:18:20.696Z,25.37
2022-10-12T21:20:44.292Z,25.57
2022-10-12T21:23:07.829Z,28.43
2022-10-12T21:25:31.415Z,25.43
2022-10-12T21:27:54.936Z,30.87
2022-10-12T21:30:18.739Z,25.37
2022-10-12T21:32:43.643Z,28.63
2022-10-12T21:35:08.104Z,25.67
2022-10-12T21:37:31.640Z,28.63
2022-10-12T21:39:55.220Z,23.83
2022-10-12T21:42:19.017Z,28.43
2022-10-12T21:44:42.890Z,26.77
2022-10-12T21:47:06.554Z,26.17
2022-10-12T21:49:31.549Z,24.97
2022-10-12T21:51:55.090Z,27.17
2022-10-12T21:54:18.644Z,26.53
2022-10-12T21:56:42.529Z,24.77
2022-10-12T21:59:07.490Z,23.40
2022-10-12T22:01:34.658Z,24.90
2022-10-12T22:04:00.887Z,23.83
2022-10-12T22:06:28.043Z,25.37
2022-10-12T22:08:55.983Z,23.80
2022-10-12T22:11:19.949Z,24.23
2022-10-12T22:13:43.566Z,23.93
2022-10-12T22:16:10.023Z,24.80
2022-10-12T22:18:33.910Z,24.93
2022-10-12T22:20:57.797Z,23.90
2022-10-12T22:23:23.307Z,22.57
2022-10-12T22:25:47.372Z,22.80
2022-10-12T22:28:11.059Z,21.67
2022-10-12T22:30:40.754Z,21.50
2022-10-12T22:33:04.335Z,22.27
2022-10-12T22:35:27.892Z,22.93
2022-10-12T22:37:51.501Z,22.20
2022-10-12T22:40:16.636Z,22.47
2022-10-12T22:42:40.219Z,21.63
2022-10-12T22:45:03.798Z,21.33
2022-10-12T22:47:27.369Z,23.07
2022-10-12T22:49:53.108Z,20.23
2022-10-12T22:52:17.079Z,23.13
2022-10-12T22:54:40.787Z,21.17
2022-10-12T22:57:05.881Z,20.70
2022-10-12T22:59:31.407Z,20.30
2022-10-12T23:01:54.999Z,22.57
2022-10-12T23:04:19.024Z,19.50
2022-10-12T23:06:42.591Z,20.87
2022-10-12T23:09:06.523Z,20.27
2022-10-12T23:11:31.484Z,21.43
2022-10-12T23:13:57.914Z,20.43
2022-10-12T23:16:24.939Z,19.83
2022-10-12T23:18:48.877Z,20.03
2022-10-12T23:21:15.587Z,18.70
2022-10-12T23:23:40.385Z,18.87
2022-10-12T23:26:07.007Z,17.93
2022-10-12T23:28:30.680Z,18.87
2022-10-12T23:30:55.884Z,17.80
2022-10-12T23:33:19.468Z,18.13
2022-10-12T23:35:43.063Z,18.50
2022-10-12T23:38:06.643Z,17.50
2022-10-12T23:40:30.231Z,18.50
2022-10-12T23:42:54.325Z,19.20
2022-10-12T23:45:18.079Z,16.77
2022-10-12T23:47:45.234Z,17.10
2022-10-12T23:50:09.572Z,17.83
2022-10-12T23:52:33.105Z,17.03
2022-10-12T23:54:56.671Z,17.03
2022-10-12T23:57:45.037Z,17.67
